Map

Track Data

SID SEASON NUMBER BASIN SUBBASIN NAME ISO_TIME NATURE LAT LON WMO_WIND WMO_PRES WMO_AGENCY TRACK_TYPE DIST2LAND LANDFALL IFLAG USA_AGENCY USA_ATCF_ID USA_LAT USA_LON USA_RECORD USA_STATUS USA_WIND USA_PRES USA_SSHS USA_R34_NE USA_R34_SE USA_R34_SW USA_R34_NW USA_R50_NE USA_R50_SE USA_R50_SW USA_R50_NW USA_R64_NE USA_R64_SE USA_R64_SW USA_R64_NW USA_POCI USA_ROCI USA_RMW USA_EYE TOKYO_LAT TOKYO_LON TOKYO_GRADE TOKYO_WIND TOKYO_PRES TOKYO_R50_DIR TOKYO_R50_LONG TOKYO_R50_SHORT TOKYO_R30_DIR TOKYO_R30_LONG TOKYO_R30_SHORT TOKYO_LAND CMA_LAT CMA_LON CMA_CAT CMA_WIND CMA_PRES HKO_LAT HKO_LON HKO_CAT HKO_WIND HKO_PRES NEWDELHI_LAT NEWDELHI_LON NEWDELHI_GRADE NEWDELHI_WIND NEWDELHI_PRES NEWDELHI_CI NEWDELHI_DP NEWDELHI_POCI REUNION_LAT REUNION_LON REUNION_TYPE REUNION_WIND REUNION_PRES REUNION_TNUM REUNION_CI REUNION_RMW REUNION_R34_NE REUNION_R34_SE REUNION_R34_SW REUNION_R34_NW REUNION_R50_NE REUNION_R50_SE REUNION_R50_SW REUNION_R50_NW REUNION_R64_NE REUNION_R64_SE REUNION_R64_SW REUNION_R64_NW BOM_LAT BOM_LON BOM_TYPE BOM_WIND BOM_PRES BOM_TNUM BOM_CI BOM_RMW BOM_R34_NE BOM_R34_SE BOM_R34_SW BOM_R34_NW BOM_R50_NE BOM_R50_SE BOM_R50_SW BOM_R50_NW BOM_R64_NE BOM_R64_SE BOM_R64_SW BOM_R64_NW BOM_ROCI BOM_POCI BOM_EYE BOM_POS_METHOD BOM_PRES_METHOD NADI_LAT NADI_LON NADI_CAT NADI_WIND NADI_PRES WELLINGTON_LAT WELLINGTON_LON WELLINGTON_WIND WELLINGTON_PRES DS824_LAT DS824_LON DS824_STAGE DS824_WIND DS824_PRES TD9636_LAT TD9636_LON TD9636_STAGE TD9636_WIND TD9636_PRES TD9635_LAT TD9635_LON TD9635_WIND TD9635_PRES TD9635_ROCI NEUMANN_LAT NEUMANN_LON NEUMANN_CLASS NEUMANN_WIND NEUMANN_PRES MLC_LAT MLC_LON MLC_CLASS MLC_WIND MLC_PRES USA_GUST BOM_GUST BOM_GUST_PER REUNION_GUST REUNION_GUST_PER USA_SEAHGT USA_SEARAD_NE USA_SEARAD_SE USA_SEARAD_SW USA_SEARAD_NW STORM_SPEED STORM_DIR
1893196N15129 1893 22 WP MM NOT_NAMED 1893-07-14 16:00:00 NR 14.9000 128.500 main 443 427 __________O___ -1 14.9000 128.500 7 10 288
1893196N15129 1893 22 WP MM NOT_NAMED 1893-07-14 18:00:00 NR 15.0078 128.157 main 427 379 __________P___ -1 15.0078 128.157 7 10 288
1893196N15129 1893 22 WP MM NOT_NAMED 1893-07-14 21:00:00 NR 15.1723 127.652 main 383 339 __________P___ -1 15.1723 127.652 7 10 290
1893196N15129 1893 22 WP MM NOT_NAMED 1893-07-15 00:00:00 NR 15.3455 127.172 main 339 305 __________P___ -1 15.3455 127.172 7 10 292
1893196N15129 1893 22 WP MM NOT_NAMED 1893-07-15 03:00:00 NR 15.5331 126.734 main 305 303 __________P___ -1 15.5331 126.734 7 9 295
1893196N15129 1893 22 WP MM NOT_NAMED 1893-07-15 04:00:00 NR 15.6000 126.600 main 303 294 __________O___ -1 15.6000 126.600 3 8 299
1893196N15129 1893 22 WP MM NOT_NAMED 1893-07-15 06:00:00 NR 15.7403 126.352 main 294 280 __________P___ -1 15.7403 126.352 3 8 303
1893196N15129 1893 22 WP MM NOT_NAMED 1893-07-15 09:00:00 NR 15.9577 126.017 main 288 279 __________P___ -1 15.9577 126.017 3 8 305
1893196N15129 1893 22 WP MM NOT_NAMED 1893-07-15 12:00:00 NR 16.1668 125.709 main 288 283 __________P___ -1 16.1668 125.709 3 7 304
1893196N15129 1893 22 WP MM NOT_NAMED 1893-07-15 15:00:00 NR 16.3487 125.404 main 283 289 __________P___ -1 16.3487 125.404 3 7 301
1893196N15129 1893 22 WP MM NOT_NAMED 1893-07-15 16:00:00 NR 16.4000 125.300 main 289 280 __________O___ -1 16.4000 125.300 4 7 291
1893196N15129 1893 22 WP MM NOT_NAMED 1893-07-15 18:00:00 NR 16.4706 125.075 main 280 238 __________P___ -1 16.4706 125.075 4 7 285
1893196N15129 1893 22 WP MM NOT_NAMED 1893-07-15 21:00:00 NR 16.5448 124.731 main 238 205 __________P___ -1 16.5448 124.731 4 7 281
1893196N15129 1893 22 WP MM NOT_NAMED 1893-07-16 00:00:00 NR 16.6032 124.379 main 205 161 __________P___ -1 16.6032 124.379 4 7 281
1893196N15129 1893 22 WP MM NOT_NAMED 1893-07-16 03:00:00 NR 16.6710 124.021 main 161 150 __________P___ -1 16.6710 124.021 4 7 282
1893196N15129 1893 22 WP MM NOT_NAMED 1893-07-16 04:00:00 NR 16.7000 123.900 main 150 128 __________O___ -1 16.7000 123.900 4 7 288
1893196N15129 1893 22 WP MM NOT_NAMED 1893-07-16 06:00:00 NR 16.7853 123.664 main 128 85 __________P___ -1 16.7853 123.664 4 7 292
1893196N15129 1893 22 WP MM NOT_NAMED 1893-07-16 09:00:00 NR 16.9323 123.303 main 85 43 __________P___ -1 16.9323 123.303 4 8 294
1893196N15129 1893 22 WP MM NOT_NAMED 1893-07-16 12:00:00 NR 17.0912 122.929 main 43 10 __________P___ -1 17.0912 122.929 4 8 293
1893196N15129 1893 22 WP MM NOT_NAMED 1893-07-16 15:00:00 NR 17.2495 122.536 main 10 0 __________P___ -1 17.2495 122.536 4 8 292
1893196N15129 1893 22 WP MM NOT_NAMED 1893-07-16 16:00:00 NR 17.3000 122.400 main 0 0 __________O___ -1 17.3000 122.400 4 9 287
1893196N15129 1893 22 WP MM NOT_NAMED 1893-07-16 18:00:00 NR 17.3761 122.101 main 0 0 __________P___ -1 17.3761 122.101 4 9 284
1893196N15129 1893 22 WP MM NOT_NAMED 1893-07-16 21:00:00 NR 17.4836 121.634 main 0 0 __________P___ -1 17.4836 121.634 4 9 284
1893196N15129 1893 22 WP MM NOT_NAMED 1893-07-17 00:00:00 NR 17.5996 121.168 main 0 0 __________P___ -1 17.5996 121.168 4 9 287
1893196N15129 1893 22 WP MM NOT_NAMED 1893-07-17 03:00:00 NR 17.7429 120.733 main 0 0 __________P___ -1 17.7429 120.733 4 9 290
1893196N15129 1893 22 WP MM NOT_NAMED 1893-07-17 04:00:00 NR 17.8000 120.600 main 0 0 __________O___ -1 17.8000 120.600 4 8 295
1893196N15129 1893 22 WP MM NOT_NAMED 1893-07-17 06:00:00 NR 17.9170 120.340 main 21 21 __________P___ -1 17.9170 120.340 4 8 299
1893196N15129 1893 22 WP MM NOT_NAMED 1893-07-17 09:00:00 NR 18.1237 119.986 main 52 52 __________P___ -1 18.1237 119.986 4 8 307
1893196N15129 1893 22 WP MM NOT_NAMED 1893-07-17 12:00:00 NR 18.3762 119.689 main 90 90 __________P___ -1 18.3762 119.689 4 8 318
1893196N15129 1893 22 WP MM NOT_NAMED 1893-07-17 15:00:00 NR 18.6837 119.459 main 120 130 __________P___ -1 18.6837 119.459 4 8 327
1893196N15129 1893 22 WP MM NOT_NAMED 1893-07-17 16:00:00 NR 18.8000 119.400 main 134 134 __________O___ -1 18.8000 119.400 4 8 336
1893196N15129 1893 22 WP MM NOT_NAMED 1893-07-17 18:00:00 NR 19.0646 119.283 main 157 157 __________P___ -1 19.0646 119.283 4 9 343
1893196N15129 1893 22 WP MM NOT_NAMED 1893-07-17 21:00:00 NR 19.5123 119.171 main 191 191 __________P___ -1 19.5123 119.171 4 9 351
1893196N15129 1893 22 WP MM NOT_NAMED 1893-07-18 00:00:00 NR 19.9878 119.134 main 237 220 __________P___ -1 19.9878 119.134 4 9 359
1893196N15129 1893 22 WP MM NOT_NAMED 1893-07-18 03:00:00 NR 20.4535 119.171 main 220 212 __________P___ -1 20.4535 119.171 4 9 5
1893196N15129 1893 22 WP MM NOT_NAMED 1893-07-18 04:00:00 NR 20.6000 119.200 main 212 183 __________O___ -1 20.6000 119.200 4 8 15
1893196N15129 1893 22 WP MM NOT_NAMED 1893-07-18 06:00:00 NR 20.8510 119.281 main 183 146 __________P___ -1 20.8510 119.281 4 8 23
1893196N15129 1893 22 WP MM NOT_NAMED 1893-07-18 09:00:00 NR 21.2022 119.466 main 146 112 __________P___ -1 21.2022 119.466 4 8 29
1893196N15129 1893 22 WP MM NOT_NAMED 1893-07-18 12:00:00 NR 21.5395 119.694 main 112 78 __________P___ -1 21.5395 119.694 4 8 32
1893196N15129 1893 22 WP MM NOT_NAMED 1893-07-18 15:00:00 NR 21.8816 119.928 main 78 63 __________P___ -1 21.8816 119.928 4 8 31
1893196N15129 1893 22 WP MM NOT_NAMED 1893-07-18 16:00:00 NR 22.0000 120.000 main 63 30 __________O___ -1 22.0000 120.000 4 8 27
1893196N15129 1893 22 WP MM NOT_NAMED 1893-07-18 18:00:00 NR 22.2500 120.132 main 30 0 __________P___ -1 22.2500 120.132 4 8 25
1893196N15129 1893 22 WP MM NOT_NAMED 1893-07-18 21:00:00 NR 22.6375 120.318 main 0 0 __________P___ -1 22.6375 120.318 4 9 22
1893196N15129 1893 22 WP MM NOT_NAMED 1893-07-19 00:00:00 NR 23.0400 120.473 main 0 0 __________P___ -1 23.0400 120.473 4 9 16
1893196N15129 1893 22 WP MM NOT_NAMED 1893-07-19 03:00:00 NR 23.4575 120.579 main 0 0 __________P___ -1 23.4575 120.579 4 9 12
1893196N15129 1893 22 WP MM NOT_NAMED 1893-07-19 04:00:00 NR 23.6000 120.600 main 0 0 __________O___ -1 23.6000 120.600 4 9 5
1893196N15129 1893 22 WP MM NOT_NAMED 1893-07-19 06:00:00 NR 23.8911 120.628 main 0 0 __________P___ -1 23.8911 120.628 4 9 0
1893196N15129 1893 22 WP MM NOT_NAMED 1893-07-19 09:00:00 NR 24.3404 120.620 main 0 0 __________P___ -1 24.3404 120.620 4 9 356
1893196N15129 1893 22 WP MM NOT_NAMED 1893-07-19 12:00:00 NR 24.7968 120.557 main 24 24 __________P___ -1 24.7968 120.557 4 9 350
1893196N15129 1893 22 WP MM NOT_NAMED 1893-07-19 15:00:00 NR 25.2508 120.447 main 69 69 __________P___ -1 25.2508 120.447 4 9 347
1893196N15129 1893 22 WP MM NOT_NAMED 1893-07-19 16:00:00 NR 25.4000 120.400 main 70 61 __________O___ -1 25.4000 120.400 4 9 343
1893196N15129 1893 22 WP MM NOT_NAMED 1893-07-19 18:00:00 NR 25.6937 120.294 main 64 37 __________P___ -1 25.6937 120.294 4 9 340
1893196N15129 1893 22 WP MM NOT_NAMED 1893-07-19 21:00:00 NR 26.1241 120.109 main 37 9 __________P___ -1 26.1241 120.109 4 9 337
1893196N15129 1893 22 WP MM NOT_NAMED 1893-07-20 00:00:00 NR 26.5456 119.900 main 9 0 __________P___ -1 26.5456 119.900 4 9 335
1893196N15129 1893 22 WP MM NOT_NAMED 1893-07-20 03:00:00 NR 26.9618 119.676 main 0 0 __________P___ -1 26.9618 119.676 4 9 334
1893196N15129 1893 22 WP MM NOT_NAMED 1893-07-20 04:00:00 NR 27.1000 119.600 main 0 __________O___ -1 27.1000 119.600 4 9 334

Digital Typhoon Data and Search

About IBTrACS Database

This database is a web-friendly format of International Best Track Archive for Climate Stewardship (IBTrACS), a global best track data archive curated by NOAA dating back to 1842.

Updated: 2021-11-26